sensor_id;sensor_type;location;lat;lon;timestamp;temperature;humidity
8882;DHT22;4477;48.736;9.176;2022-12-18T00:00:40;-12.40;99.90
8882;DHT22;4477;48.736;9.176;2022-12-18T00:03:07;-12.30;99.90
8882;DHT22;4477;48.736;9.176;2022-12-18T00:05:34;-12.50;99.90
8882;DHT22;4477;48.736;9.176;2022-12-18T00:08:02;-12.60;99.90
8882;DHT22;4477;48.736;9.176;2022-12-18T00:10:29;-12.60;99.90
8882;DHT22;4477;48.736;9.176;2022-12-18T00:12:56;-12.50;99.90
8882;DHT22;4477;48.736;9.176;2022-12-18T00:15:23;-12.40;99.90
8882;DHT22;4477;48.736;9.176;2022-12-18T00:17:50;-12.40;99.90
8882;DHT22;4477;48.736;9.176;2022-12-18T00:20:17;-12.50;99.90
8882;DHT22;4477;48.736;9.176;2022-12-18T00:22:50;-12.70;99.90
8882;DHT22;4477;48.736;9.176;2022-12-18T00:25:19;-12.90;99.90
8882;DHT22;4477;48.736;9.176;2022-12-18T00:27:45;-13.00;99.90
8882;DHT22;4477;48.736;9.176;2022-12-18T00:30:12;-13.10;99.90
8882;DHT22;4477;48.736;9.176;2022-12-18T00:32:39;-13.10;99.90
8882;DHT22;4477;48.736;9.176;2022-12-18T00:35:07;-13.10;99.90
8882;DHT22;4477;48.736;9.176;2022-12-18T00:37:34;-13.30;99.90
8882;DHT22;4477;48.736;9.176;2022-12-18T00:40:01;-13.40;99.90
8882;DHT22;4477;48.736;9.176;2022-12-18T00:42:29;-13.40;99.90
8882;DHT22;4477;48.736;9.176;2022-12-18T00:45:13;-13.40;99.90
8882;DHT22;4477;48.736;9.176;2022-12-18T00:47:40;-13.50;99.90
8882;DHT22;4477;48.736;9.176;2022-12-18T00:50:08;-13.40;99.90
8882;DHT22;4477;48.736;9.176;2022-12-18T00:52:35;-13.40;99.90
8882;DHT22;4477;48.736;9.176;2022-12-18T00:55:02;-13.40;99.90
8882;DHT22;4477;48.736;9.176;2022-12-18T00:57:30;-13.40;99.90
8882;DHT22;4477;48.736;9.176;2022-12-18T00:59:57;-13.20;99.90
8882;DHT22;4477;48.736;9.176;2022-12-18T01:02:24;-13.10;99.90
8882;DHT22;4477;48.736;9.176;2022-12-18T01:04:50;-13.00;99.90
8882;DHT22;4477;48.736;9.176;2022-12-18T01:07:17;-13.00;99.90
8882;DHT22;4477;48.736;9.176;2022-12-18T01:09:44;-12.90;99.90
8882;DHT22;4477;48.736;9.176;2022-12-18T01:12:11;-12.90;99.90
8882;DHT22;4477;48.736;9.176;2022-12-18T01:14:39;-13.00;99.90
8882;DHT22;4477;48.736;9.176;2022-12-18T01:17:06;-13.00;99.90
8882;DHT22;4477;48.736;9.176;2022-12-18T01:19:33;-13.10;99.90
8882;DHT22;4477;48.736;9.176;2022-12-18T01:22:00;-13.10;99.90
8882;DHT22;4477;48.736;9.176;2022-12-18T01:24:26;-13.20;99.90
8882;DHT22;4477;48.736;9.176;2022-12-18T01:26:53;-13.20;99.90
8882;DHT22;4477;48.736;9.176;2022-12-18T01:29:20;-13.40;99.90
8882;DHT22;4477;48.736;9.176;2022-12-18T01:31:48;-13.50;99.90
8882;DHT22;4477;48.736;9.176;2022-12-18T01:34:15;-13.40;99.90
8882;DHT22;4477;48.736;9.176;2022-12-18T01:36:42;-13.40;99.90
8882;DHT22;4477;48.736;9.176;2022-12-18T01:39:12;-13.30;99.90
8882;DHT22;4477;48.736;9.176;2022-12-18T01:41:40;-13.40;99.90
8882;DHT22;4477;48.736;9.176;2022-12-18T01:44:59;-13.30;99.90
8882;DHT22;4477;48.736;9.176;2022-12-18T01:47:32;-13.30;99.90
8882;DHT22;4477;48.736;9.176;2022-12-18T01:50:01;-13.40;99.90
8882;DHT22;4477;48.736;9.176;2022-12-18T01:52:31;-13.40;99.90
8882;DHT22;4477;48.736;9.176;2022-12-18T01:55:00;-13.30;99.90
8882;DHT22;4477;48.736;9.176;2022-12-18T01:57:28;-13.10;99.90
8882;DHT22;4477;48.736;9.176;2022-12-18T01:59:59;-12.90;99.90
8882;DHT22;4477;48.736;9.176;2022-12-18T02:02:29;-12.80;99.90
8882;DHT22;4477;48.736;9.176;2022-12-18T02:04:56;-12.50;99.90
8882;DHT22;4477;48.736;9.176;2022-12-18T02:07:29;-12.30;99.90
8882;DHT22;4477;48.736;9.176;2022-12-18T02:10:02;-12.10;99.90
8882;DHT22;4477;48.736;9.176;2022-12-18T02:12:37;-12.10;99.90
8882;DHT22;4477;48.736;9.176;2022-12-18T02:15:13;-12.10;99.90
8882;DHT22;4477;48.736;9.176;2022-12-18T02:17:47;-12.20;99.90
8882;DHT22;4477;48.736;9.176;2022-12-18T02:20:19;-12.00;99.90
8882;DHT22;4477;48.736;9.176;2022-12-18T02:23:01;-12.00;99.90
8882;DHT22;4477;48.736;9.176;2022-12-18T02:28:16;-11.60;99.90
8882;DHT22;4477;48.736;9.176;2022-12-18T02:30:48;-11.50;99.90
8882;DHT22;4477;48.736;9.176;2022-12-18T02:33:16;-11.40;99.90
8882;DHT22;4477;48.736;9.176;2022-12-18T02:35:44;-11.40;99.90
8882;DHT22;4477;48.736;9.176;2022-12-18T02:38:12;-11.60;99.90
8882;DHT22;4477;48.736;9.176;2022-12-18T02:40:40;-11.60;99.90
8882;DHT22;4477;48.736;9.176;2022-12-18T02:43:10;-11.70;99.90
8882;DHT22;4477;48.736;9.176;2022-12-18T02:45:49;-11.90;99.90
8882;DHT22;4477;48.736;9.176;2022-12-18T02:48:18;-12.00;99.90
8882;DHT22;4477;48.736;9.176;2022-12-18T02:50:51;-12.00;99.90
8882;DHT22;4477;48.736;9.176;2022-12-18T02:53:26;-12.10;99.90
8882;DHT22;4477;48.736;9.176;2022-12-18T02:56:01;-12.10;99.90
8882;DHT22;4477;48.736;9.176;2022-12-18T02:58:36;-12.00;99.90
8882;DHT22;4477;48.736;9.176;2022-12-18T03:01:11;-11.90;99.90
8882;DHT22;4477;48.736;9.176;2022-12-18T03:03:40;-11.90;99.90
8882;DHT22;4477;48.736;9.176;2022-12-18T03:06:12;-12.00;99.90
8882;DHT22;4477;48.736;9.176;2022-12-18T03:08:43;-12.00;99.90
8882;DHT22;4477;48.736;9.176;2022-12-18T03:11:13;-11.90;99.90
8882;DHT22;4477;48.736;9.176;2022-12-18T03:13:44;-11.70;99.90
8882;DHT22;4477;48.736;9.176;2022-12-18T03:16:16;-11.50;99.90
8882;DHT22;4477;48.736;9.176;2022-12-18T03:18:47;-11.60;99.90
8882;DHT22;4477;48.736;9.176;2022-12-18T03:21:19;-11.60;99.90
8882;DHT22;4477;48.736;9.176;2022-12-18T03:23:49;-11.70;99.90
8882;DHT22;4477;48.736;9.176;2022-12-18T03:26:19;-11.90;99.90
8882;DHT22;4477;48.736;9.176;2022-12-18T03:28:51;-12.00;99.90
8882;DHT22;4477;48.736;9.176;2022-12-18T03:31:22;-12.20;99.90
8882;DHT22;4477;48.736;9.176;2022-12-18T03:33:52;-12.40;99.90
8882;DHT22;4477;48.736;9.176;2022-12-18T03:36:19;-12.50;99.90
8882;DHT22;4477;48.736;9.176;2022-12-18T03:38:47;-12.50;99.90
8882;DHT22;4477;48.736;9.176;2022-12-18T03:41:17;-12.60;99.90
8882;DHT22;4477;48.736;9.176;2022-12-18T03:43:50;-12.70;99.90
8882;DHT22;4477;48.736;9.176;2022-12-18T03:46:25;-12.80;99.90
8882;DHT22;4477;48.736;9.176;2022-12-18T03:48:59;-12.80;99.90
8882;DHT22;4477;48.736;9.176;2022-12-18T03:51:33;-12.90;99.90
8882;DHT22;4477;48.736;9.176;2022-12-18T03:54:03;-13.10;99.90
8882;DHT22;4477;48.736;9.176;2022-12-18T03:56:35;-13.20;99.90
8882;DHT22;4477;48.736;9.176;2022-12-18T03:59:05;-13.30;99.90
8882;DHT22;4477;48.736;9.176;2022-12-18T04:01:38;-13.20;99.90
8882;DHT22;4477;48.736;9.176;2022-12-18T04:04:07;-13.20;99.90
8882;DHT22;4477;48.736;9.176;2022-12-18T04:06:35;-13.30;99.90
8882;DHT22;4477;48.736;9.176;2022-12-18T04:09:03;-13.30;99.90
8882;DHT22;4477;48.736;9.176;2022-12-18T04:11:30;-13.10;99.90
8882;DHT22;4477;48.736;9.176;2022-12-18T04:13:58;-13.20;99.90
8882;DHT22;4477;48.736;9.176;2022-12-18T04:16:25;-13.20;99.90
8882;DHT22;4477;48.736;9.176;2022-12-18T04:18:53;-13.30;99.90
8882;DHT22;4477;48.736;9.176;2022-12-18T04:21:20;-13.20;99.90
8882;DHT22;4477;48.736;9.176;2022-12-18T04:23:48;-13.20;99.90
8882;DHT22;4477;48.736;9.176;2022-12-18T04:26:15;-13.20;99.90
8882;DHT22;4477;48.736;9.176;2022-12-18T04:28:41;-13.30;99.90
8882;DHT22;4477;48.736;9.176;2022-12-18T04:31:08;-13.40;99.90
8882;DHT22;4477;48.736;9.176;2022-12-18T04:33:35;-13.40;99.90
8882;DHT22;4477;48.736;9.176;2022-12-18T04:36:04;-13.40;99.90
8882;DHT22;4477;48.736;9.176;2022-12-18T04:38:31;-13.30;99.90
8882;DHT22;4477;48.736;9.176;2022-12-18T04:40:58;-13.20;99.90
8882;DHT22;4477;48.736;9.176;2022-12-18T04:43:25;-13.40;99.90
8882;DHT22;4477;48.736;9.176;2022-12-18T04:45:52;-13.40;99.90
8882;DHT22;4477;48.736;9.176;2022-12-18T04:48:19;-13.50;99.90
8882;DHT22;4477;48.736;9.176;2022-12-18T04:50:47;-13.60;99.90
8882;DHT22;4477;48.736;9.176;2022-12-18T04:53:15;-13.60;99.90
8882;DHT22;4477;48.736;9.176;2022-12-18T04:55:42;-13.60;99.90
8882;DHT22;4477;48.736;9.176;2022-12-18T04:58:09;-13.70;99.90
8882;DHT22;4477;48.736;9.176;2022-12-18T05:00:35;-13.70;99.90
8882;DHT22;4477;48.736;9.176;2022-12-18T05:03:02;-13.70;99.90
8882;DHT22;4477;48.736;9.176;2022-12-18T05:05:29;-13.70;99.90
8882;DHT22;4477;48.736;9.176;2022-12-18T05:07:56;-13.50;99.90
8882;DHT22;4477;48.736;9.176;2022-12-18T05:10:24;-13.40;99.90
8882;DHT22;4477;48.736;9.176;2022-12-18T05:12:51;-13.40;99.90
8882;DHT22;4477;48.736;9.176;2022-12-18T05:15:29;-13.50;99.90
8882;DHT22;4477;48.736;9.176;2022-12-18T05:17:57;-13.60;99.90
8882;DHT22;4477;48.736;9.176;2022-12-18T05:20:25;-13.70;99.90
8882;DHT22;4477;48.736;9.176;2022-12-18T05:22:52;-13.60;99.90
8882;DHT22;4477;48.736;9.176;2022-12-18T05:25:19;-13.80;99.90
8882;DHT22;4477;48.736;9.176;2022-12-18T05:27:48;-14.00;99.90
8882;DHT22;4477;48.736;9.176;2022-12-18T05:30:15;-14.10;99.90
8882;DHT22;4477;48.736;9.176;2022-12-18T05:32:43;-14.30;99.90
8882;DHT22;4477;48.736;9.176;2022-12-18T05:35:11;-14.30;99.90
8882;DHT22;4477;48.736;9.176;2022-12-18T05:37:37;-14.20;99.90
8882;DHT22;4477;48.736;9.176;2022-12-18T05:40:05;-14.40;99.90
8882;DHT22;4477;48.736;9.176;2022-12-18T05:42:32;-14.60;99.90
8882;DHT22;4477;48.736;9.176;2022-12-18T05:45:00;-14.60;99.90
8882;DHT22;4477;48.736;9.176;2022-12-18T05:47:27;-14.70;99.90
8882;DHT22;4477;48.736;9.176;2022-12-18T05:49:54;-14.80;99.90
8882;DHT22;4477;48.736;9.176;2022-12-18T05:52:21;-14.90;99.90
8882;DHT22;4477;48.736;9.176;2022-12-18T05:54:48;-14.80;99.90
8882;DHT22;4477;48.736;9.176;2022-12-18T05:57:15;-14.80;99.90
8882;DHT22;4477;48.736;9.176;2022-12-18T05:59:42;-14.90;99.90
8882;DHT22;4477;48.736;9.176;2022-12-18T06:02:10;-15.00;99.90
8882;DHT22;4477;48.736;9.176;2022-12-18T06:04:37;-15.00;99.90
8882;DHT22;4477;48.736;9.176;2022-12-18T06:07:04;-14.90;99.90
8882;DHT22;4477;48.736;9.176;2022-12-18T06:09:31;-15.00;99.90
8882;DHT22;4477;48.736;9.176;2022-12-18T06:11:58;-15.00;99.90
8882;DHT22;4477;48.736;9.176;2022-12-18T06:14:25;-15.00;99.90
8882;DHT22;4477;48.736;9.176;2022-12-18T06:16:53;-15.00;99.90
8882;DHT22;4477;48.736;9.176;2022-12-18T06:19:21;-15.10;99.90
8882;DHT22;4477;48.736;9.176;2022-12-18T06:21:48;-15.20;99.90
8882;DHT22;4477;48.736;9.176;2022-12-18T06:24:16;-15.10;99.90
8882;DHT22;4477;48.736;9.176;2022-12-18T06:26:42;-14.90;99.90
8882;DHT22;4477;48.736;9.176;2022-12-18T06:29:10;-15.00;99.90
8882;DHT22;4477;48.736;9.176;2022-12-18T06:31:36;-14.80;99.90
8882;DHT22;4477;48.736;9.176;2022-12-18T06:34:04;-14.80;99.90
8882;DHT22;4477;48.736;9.176;2022-12-18T06:36:32;-14.70;99.90
8882;DHT22;4477;48.736;9.176;2022-12-18T06:38:59;-14.70;99.90
8882;DHT22;4477;48.736;9.176;2022-12-18T06:41:26;-14.80;99.90
8882;DHT22;4477;48.736;9.176;2022-12-18T06:43:52;-15.00;99.90
8882;DHT22;4477;48.736;9.176;2022-12-18T06:46:19;-15.00;99.90
8882;DHT22;4477;48.736;9.176;2022-12-18T06:48:48;-15.00;99.90
8882;DHT22;4477;48.736;9.176;2022-12-18T06:51:19;-14.90;99.90
8882;DHT22;4477;48.736;9.176;2022-12-18T06:53:48;-14.80;99.90
8882;DHT22;4477;48.736;9.176;2022-12-18T06:56:15;-14.90;99.90
8882;DHT22;4477;48.736;9.176;2022-12-18T06:58:42;-15.00;99.90
8882;DHT22;4477;48.736;9.176;2022-12-18T07:01:10;-14.80;99.90
8882;DHT22;4477;48.736;9.176;2022-12-18T07:03:38;-14.80;99.90
8882;DHT22;4477;48.736;9.176;2022-12-18T07:06:05;-14.80;99.90
8882;DHT22;4477;48.736;9.176;2022-12-18T07:08:32;-14.90;99.90
8882;DHT22;4477;48.736;9.176;2022-12-18T07:11:03;-15.00;99.90
8882;DHT22;4477;48.736;9.176;2022-12-18T07:13:29;-15.00;99.90
8882;DHT22;4477;48.736;9.176;2022-12-18T07:16:03;-14.90;99.90
8882;DHT22;4477;48.736;9.176;2022-12-18T07:18:30;-14.80;99.90
8882;DHT22;4477;48.736;9.176;2022-12-18T07:20:57;-14.70;99.90
8882;DHT22;4477;48.736;9.176;2022-12-18T07:23:24;-14.70;99.90
8882;DHT22;4477;48.736;9.176;2022-12-18T07:25:51;-14.60;99.90
8882;DHT22;4477;48.736;9.176;2022-12-18T07:28:19;-14.50;99.90
8882;DHT22;4477;48.736;9.176;2022-12-18T07:30:46;-14.50;99.90
8882;DHT22;4477;48.736;9.176;2022-12-18T07:33:12;-14.30;99.90
8882;DHT22;4477;48.736;9.176;2022-12-18T07:35:39;-14.10;99.90
8882;DHT22;4477;48.736;9.176;2022-12-18T07:38:06;-14.00;99.90
8882;DHT22;4477;48.736;9.176;2022-12-18T07:40:33;-14.00;99.90
8882;DHT22;4477;48.736;9.176;2022-12-18T07:43:00;-13.60;99.90
8882;DHT22;4477;48.736;9.176;2022-12-18T07:45:28;-13.40;99.90
8882;DHT22;4477;48.736;9.176;2022-12-18T07:47:55;-13.10;99.90
8882;DHT22;4477;48.736;9.176;2022-12-18T07:50:21;-12.80;99.90
8882;DHT22;4477;48.736;9.176;2022-12-18T07:52:49;-12.60;99.90
8882;DHT22;4477;48.736;9.176;2022-12-18T07:55:16;-12.40;99.90
8882;DHT22;4477;48.736;9.176;2022-12-18T07:57:43;-12.40;99.90
8882;DHT22;4477;48.736;9.176;2022-12-18T08:00:11;-12.40;99.90
8882;DHT22;4477;48.736;9.176;2022-12-18T08:02:39;-12.30;99.90
8882;DHT22;4477;48.736;9.176;2022-12-18T08:05:07;-12.20;99.90
8882;DHT22;4477;48.736;9.176;2022-12-18T08:07:33;-11.70;99.90
8882;DHT22;4477;48.736;9.176;2022-12-18T08:10:00;-11.00;99.90
8882;DHT22;4477;48.736;9.176;2022-12-18T08:12:27;-10.40;99.90
8882;DHT22;4477;48.736;9.176;2022-12-18T08:14:54;-9.90;99.90
8882;DHT22;4477;48.736;9.176;2022-12-18T08:17:21;-9.50;99.90
8882;DHT22;4477;48.736;9.176;2022-12-18T08:19:49;-9.40;99.90
8882;DHT22;4477;48.736;9.176;2022-12-18T08:22:16;-9.40;99.90
8882;DHT22;4477;48.736;9.176;2022-12-18T08:24:42;-9.50;99.90
8882;DHT22;4477;48.736;9.176;2022-12-18T08:27:09;-9.50;99.90
8882;DHT22;4477;48.736;9.176;2022-12-18T08:29:36;-9.40;99.90
8882;DHT22;4477;48.736;9.176;2022-12-18T08:32:04;-9.00;99.90
8882;DHT22;4477;48.736;9.176;2022-12-18T08:34:31;-8.50;99.90
8882;DHT22;4477;48.736;9.176;2022-12-18T08:36:59;-7.90;99.90
8882;DHT22;4477;48.736;9.176;2022-12-18T08:39:26;-7.40;99.90
8882;DHT22;4477;48.736;9.176;2022-12-18T08:41:53;-7.00;99.90
8882;DHT22;4477;48.736;9.176;2022-12-18T08:44:37;-6.60;99.90
8882;DHT22;4477;48.736;9.176;2022-12-18T08:47:04;-6.20;99.90
8882;DHT22;4477;48.736;9.176;2022-12-18T08:49:31;-6.10;99.90
8882;DHT22;4477;48.736;9.176;2022-12-18T08:51:59;-5.90;99.90
8882;DHT22;4477;48.736;9.176;2022-12-18T08:54:28;-5.80;99.90
8882;DHT22;4477;48.736;9.176;2022-12-18T08:56:55;-6.00;99.90
8882;DHT22;4477;48.736;9.176;2022-12-18T08:59:21;-6.00;99.90
8882;DHT22;4477;48.736;9.176;2022-12-18T09:01:49;-5.90;99.90
8882;DHT22;4477;48.736;9.176;2022-12-18T09:04:16;-5.60;99.90
8882;DHT22;4477;48.736;9.176;2022-12-18T09:06:42;-5.40;99.90
8882;DHT22;4477;48.736;9.176;2022-12-18T09:09:11;-5.20;99.90
8882;DHT22;4477;48.736;9.176;2022-12-18T09:11:38;-4.90;99.90
8882;DHT22;4477;48.736;9.176;2022-12-18T09:14:05;-4.70;99.90
8882;DHT22;4477;48.736;9.176;2022-12-18T09:16:32;-4.40;99.90
8882;DHT22;4477;48.736;9.176;2022-12-18T09:19:01;-4.00;99.90
8882;DHT22;4477;48.736;9.176;2022-12-18T09:21:31;-3.60;99.90
8882;DHT22;4477;48.736;9.176;2022-12-18T09:23:58;-3.50;99.90
8882;DHT22;4477;48.736;9.176;2022-12-18T09:26:27;-3.20;99.90
8882;DHT22;4477;48.736;9.176;2022-12-18T09:28:54;-3.10;99.90
8882;DHT22;4477;48.736;9.176;2022-12-18T09:31:23;-2.80;99.90
8882;DHT22;4477;48.736;9.176;2022-12-18T09:33:51;-2.90;99.90
8882;DHT22;4477;48.736;9.176;2022-12-18T09:36:18;-3.70;99.90
8882;DHT22;4477;48.736;9.176;2022-12-18T09:38:44;-3.40;99.90
8882;DHT22;4477;48.736;9.176;2022-12-18T09:41:21;-3.30;99.90
8882;DHT22;4477;48.736;9.176;2022-12-18T09:43:56;-2.80;99.90
8882;DHT22;4477;48.736;9.176;2022-12-18T09:46:26;-2.30;99.90
8882;DHT22;4477;48.736;9.176;2022-12-18T09:48:57;-2.10;99.90
8882;DHT22;4477;48.736;9.176;2022-12-18T09:51:28;-2.10;99.90
8882;DHT22;4477;48.736;9.176;2022-12-18T09:53:59;-2.00;99.90
8882;DHT22;4477;48.736;9.176;2022-12-18T09:56:29;-1.70;99.90
8882;DHT22;4477;48.736;9.176;2022-12-18T09:59:00;-1.60;99.90
8882;DHT22;4477;48.736;9.176;2022-12-18T10:01:28;-1.70;99.90
8882;DHT22;4477;48.736;9.176;2022-12-18T10:03:55;-1.60;99.90
8882;DHT22;4477;48.736;9.176;2022-12-18T10:06:26;-1.70;99.90
8882;DHT22;4477;48.736;9.176;2022-12-18T10:09:01;-1.70;99.90
8882;DHT22;4477;48.736;9.176;2022-12-18T10:11:40;-1.60;99.90
8882;DHT22;4477;48.736;9.176;2022-12-18T10:14:16;-1.40;99.90
8882;DHT22;4477;48.736;9.176;2022-12-18T10:16:54;-1.90;99.90
8882;DHT22;4477;48.736;9.176;2022-12-18T10:19:36;-1.90;99.90
8882;DHT22;4477;48.736;9.176;2022-12-18T10:22:13;-2.10;99.90
8882;DHT22;4477;48.736;9.176;2022-12-18T10:24:48;-2.10;99.90
8882;DHT22;4477;48.736;9.176;2022-12-18T10:27:23;-1.80;99.90
8882;DHT22;4477;48.736;9.176;2022-12-18T10:29:52;-1.60;99.90
8882;DHT22;4477;48.736;9.176;2022-12-18T10:32:20;-1.50;99.90
8882;DHT22;4477;48.736;9.176;2022-12-18T10:34:48;-1.10;99.90
8882;DHT22;4477;48.736;9.176;2022-12-18T10:37:17;-0.80;99.90
8882;DHT22;4477;48.736;9.176;2022-12-18T10:39:45;-0.20;99.90
8882;DHT22;4477;48.736;9.176;2022-12-18T10:42:17;0.30;99.90
8882;DHT22;4477;48.736;9.176;2022-12-18T10:44:44;0.20;99.90
8882;DHT22;4477;48.736;9.176;2022-12-18T10:47:15;0.40;99.90
8882;DHT22;4477;48.736;9.176;2022-12-18T10:49:49;0.60;99.80
8882;DHT22;4477;48.736;9.176;2022-12-18T10:52:19;0.90;99.30
8882;DHT22;4477;48.736;9.176;2022-12-18T10:54:49;1.10;96.50
8882;DHT22;4477;48.736;9.176;2022-12-18T10:57:28;1.40;97.90
8882;DHT22;4477;48.736;9.176;2022-12-18T10:59:57;1.40;96.70
8882;DHT22;4477;48.736;9.176;2022-12-18T11:02:28;1.70;94.40
8882;DHT22;4477;48.736;9.176;2022-12-18T11:04:59;1.90;94.80
8882;DHT22;4477;48.736;9.176;2022-12-18T11:07:47;2.40;94.40
8882;DHT22;4477;48.736;9.176;2022-12-18T11:10:16;2.30;91.60
8882;DHT22;4477;48.736;9.176;2022-12-18T11:12:43;2.40;91.30
8882;DHT22;4477;48.736;9.176;2022-12-18T11:15:15;2.60;90.60
8882;DHT22;4477;48.736;9.176;2022-12-18T11:17:47;2.80;89.90
8882;DHT22;4477;48.736;9.176;2022-12-18T11:20:30;3.20;83.10
8882;DHT22;4477;48.736;9.176;2022-12-18T11:22:59;3.40;83.40
8882;DHT22;4477;48.736;9.176;2022-12-18T11:25:27;3.30;77.90
8882;DHT22;4477;48.736;9.176;2022-12-18T11:27:56;3.10;77.70
8882;DHT22;4477;48.736;9.176;2022-12-18T11:30:24;2.90;80.40
8882;DHT22;4477;48.736;9.176;2022-12-18T11:32:55;3.00;80.80
8882;DHT22;4477;48.736;9.176;2022-12-18T11:35:30;3.00;76.70
8882;DHT22;4477;48.736;9.176;2022-12-18T11:38:02;2.80;76.50
8882;DHT22;4477;48.736;9.176;2022-12-18T11:40:35;2.60;78.80
8882;DHT22;4477;48.736;9.176;2022-12-18T11:43:08;3.20;79.90
8882;DHT22;4477;48.736;9.176;2022-12-18T11:45:40;3.30;74.00
8882;DHT22;4477;48.736;9.176;2022-12-18T11:48:16;3.20;75.10
8882;DHT22;4477;48.736;9.176;2022-12-18T11:50:48;3.50;74.30
8882;DHT22;4477;48.736;9.176;2022-12-18T11:53:16;3.80;73.70
8882;DHT22;4477;48.736;9.176;2022-12-18T11:58:44;4.30;71.70
8882;DHT22;4477;48.736;9.176;2022-12-18T12:01:22;4.80;68.00
8882;DHT22;4477;48.736;9.176;2022-12-18T12:04:27;4.40;68.10
8882;DHT22;4477;48.736;9.176;2022-12-18T12:07:02;4.80;65.90
8882;DHT22;4477;48.736;9.176;2022-12-18T12:09:38;4.40;64.50
8882;DHT22;4477;48.736;9.176;2022-12-18T12:12:22;3.90;65.50
8882;DHT22;4477;48.736;9.176;2022-12-18T12:14:57;3.10;68.60
8882;DHT22;4477;48.736;9.176;2022-12-18T12:17:33;3.30;68.20
8882;DHT22;4477;48.736;9.176;2022-12-18T12:20:10;3.20;68.10
8882;DHT22;4477;48.736;9.176;2022-12-18T12:22:44;3.20;67.80
8882;DHT22;4477;48.736;9.176;2022-12-18T12:25:26;2.60;68.50
8882;DHT22;4477;48.736;9.176;2022-12-18T12:28:06;2.10;70.00
8882;DHT22;4477;48.736;9.176;2022-12-18T12:30:47;2.10;70.60
8882;DHT22;4477;48.736;9.176;2022-12-18T12:33:25;1.60;71.20
8882;DHT22;4477;48.736;9.176;2022-12-18T12:36:02;1.20;73.50
8882;DHT22;4477;48.736;9.176;2022-12-18T12:38:36;1.00;75.30
8882;DHT22;4477;48.736;9.176;2022-12-18T12:41:05;1.10;74.50
8882;DHT22;4477;48.736;9.176;2022-12-18T12:43:57;1.10;74.10
8882;DHT22;4477;48.736;9.176;2022-12-18T12:46:24;0.80;74.80
8882;DHT22;4477;48.736;9.176;2022-12-18T12:48:53;0.90;76.20
8882;DHT22;4477;48.736;9.176;2022-12-18T12:51:25;0.40;76.10
8882;DHT22;4477;48.736;9.176;2022-12-18T12:53:55;0.70;76.90
8882;DHT22;4477;48.736;9.176;2022-12-18T12:56:26;0.90;77.70
8882;DHT22;4477;48.736;9.176;2022-12-18T12:59:04;1.00;75.60
8882;DHT22;4477;48.736;9.176;2022-12-18T13:01:40;0.80;76.50
8882;DHT22;4477;48.736;9.176;2022-12-18T13:04:15;1.00;75.70
8882;DHT22;4477;48.736;9.176;2022-12-18T13:06:55;1.30;74.90
8882;DHT22;4477;48.736;9.176;2022-12-18T13:09:30;1.50;74.00
8882;DHT22;4477;48.736;9.176;2022-12-18T13:12:02;1.80;72.90
8882;DHT22;4477;48.736;9.176;2022-12-18T13:14:47;2.20;71.60
8882;DHT22;4477;48.736;9.176;2022-12-18T13:17:29;2.10;71.90
8882;DHT22;4477;48.736;9.176;2022-12-18T13:20:12;2.10;71.50
8882;DHT22;4477;48.736;9.176;2022-12-18T13:22:44;2.30;70.60
8882;DHT22;4477;48.736;9.176;2022-12-18T13:25:27;2.10;71.50
8882;DHT22;4477;48.736;9.176;2022-12-18T13:28:04;2.10;71.60
8882;DHT22;4477;48.736;9.176;2022-12-18T13:30:49;1.90;71.70
8882;DHT22;4477;48.736;9.176;2022-12-18T13:33:49;1.40;72.20
8882;DHT22;4477;48.736;9.176;2022-12-18T13:36:28;1.10;74.40
8882;DHT22;4477;48.736;9.176;2022-12-18T13:45:44;0.60;77.20
8882;DHT22;4477;48.736;9.176;2022-12-18T13:48:23;0.40;78.00
8882;DHT22;4477;48.736;9.176;2022-12-18T13:51:03;0.40;78.90
8882;DHT22;4477;48.736;9.176;2022-12-18T13:53:37;0.00;79.80
8882;DHT22;4477;48.736;9.176;2022-12-18T13:56:05;0.00;80.20
8882;DHT22;4477;48.736;9.176;2022-12-18T13:58:32;-0.10;80.70
8882;DHT22;4477;48.736;9.176;2022-12-18T14:01:00;-0.20;81.20
8882;DHT22;4477;48.736;9.176;2022-12-18T14:03:30;-0.40;81.50
8882;DHT22;4477;48.736;9.176;2022-12-18T14:06:10;-0.70;83.40
8882;DHT22;4477;48.736;9.176;2022-12-18T14:08:39;-0.90;83.80
8882;DHT22;4477;48.736;9.176;2022-12-18T14:11:07;-1.10;84.80
8882;DHT22;4477;48.736;9.176;2022-12-18T14:13:44;-1.40;86.00
8882;DHT22;4477;48.736;9.176;2022-12-18T14:16:15;-1.80;87.20
8882;DHT22;4477;48.736;9.176;2022-12-18T14:18:45;-2.00;88.60
8882;DHT22;4477;48.736;9.176;2022-12-18T14:21:21;-2.20;90.00
8882;DHT22;4477;48.736;9.176;2022-12-18T14:23:48;-2.40;90.40
8882;DHT22;4477;48.736;9.176;2022-12-18T14:26:26;-2.70;91.20
8882;DHT22;4477;48.736;9.176;2022-12-18T14:28:54;-2.80;92.00
8882;DHT22;4477;48.736;9.176;2022-12-18T14:31:25;-3.00;92.00
8882;DHT22;4477;48.736;9.176;2022-12-18T14:33:52;-3.10;92.60
8882;DHT22;4477;48.736;9.176;2022-12-18T14:36:20;-3.30;93.30
8882;DHT22;4477;48.736;9.176;2022-12-18T14:38:49;-3.40;94.00
8882;DHT22;4477;48.736;9.176;2022-12-18T14:41:18;-3.50;94.30
8882;DHT22;4477;48.736;9.176;2022-12-18T14:43:46;-3.70;95.40
8882;DHT22;4477;48.736;9.176;2022-12-18T14:46:30;-3.90;96.30
8882;DHT22;4477;48.736;9.176;2022-12-18T14:49:00;-4.00;97.10
8882;DHT22;4477;48.736;9.176;2022-12-18T14:51:29;-4.20;97.60
8882;DHT22;4477;48.736;9.176;2022-12-18T14:53:58;-4.30;99.10
8882;DHT22;4477;48.736;9.176;2022-12-18T14:56:28;-4.50;99.90
8882;DHT22;4477;48.736;9.176;2022-12-18T14:58:57;-4.60;99.90
8882;DHT22;4477;48.736;9.176;2022-12-18T15:01:28;-4.70;99.90
8882;DHT22;4477;48.736;9.176;2022-12-18T15:03:56;-4.80;99.90
8882;DHT22;4477;48.736;9.176;2022-12-18T15:06:34;-5.00;99.90
8882;DHT22;4477;48.736;9.176;2022-12-18T15:09:04;-5.20;99.90
8882;DHT22;4477;48.736;9.176;2022-12-18T15:11:44;-5.30;99.90
8882;DHT22;4477;48.736;9.176;2022-12-18T15:14:31;-5.40;99.90
8882;DHT22;4477;48.736;9.176;2022-12-18T15:17:01;-5.50;99.90
8882;DHT22;4477;48.736;9.176;2022-12-18T15:19:33;-5.60;99.90
8882;DHT22;4477;48.736;9.176;2022-12-18T15:22:01;-5.70;99.90
8882;DHT22;4477;48.736;9.176;2022-12-18T15:24:30;-5.80;99.90
8882;DHT22;4477;48.736;9.176;2022-12-18T15:27:03;-5.90;99.90
8882;DHT22;4477;48.736;9.176;2022-12-18T15:29:30;-5.90;99.90
8882;DHT22;4477;48.736;9.176;2022-12-18T15:32:04;-6.00;99.90
8882;DHT22;4477;48.736;9.176;2022-12-18T15:34:32;-6.00;99.90
8882;DHT22;4477;48.736;9.176;2022-12-18T15:37:00;-6.00;99.90
8882;DHT22;4477;48.736;9.176;2022-12-18T15:39:27;-6.00;99.90
8882;DHT22;4477;48.736;9.176;2022-12-18T15:41:53;-6.00;99.90
8882;DHT22;4477;48.736;9.176;2022-12-18T15:44:38;-6.20;99.90
8882;DHT22;4477;48.736;9.176;2022-12-18T15:47:10;-6.20;99.90
8882;DHT22;4477;48.736;9.176;2022-12-18T15:49:37;-6.30;99.90
8882;DHT22;4477;48.736;9.176;2022-12-18T15:52:05;-6.30;99.90
8882;DHT22;4477;48.736;9.176;2022-12-18T15:54:32;-6.40;99.90
8882;DHT22;4477;48.736;9.176;2022-12-18T15:57:16;-6.40;99.90
8882;DHT22;4477;48.736;9.176;2022-12-18T15:59:54;-6.50;99.90
8882;DHT22;4477;48.736;9.176;2022-12-18T16:02:25;-6.50;99.90
8882;DHT22;4477;48.736;9.176;2022-12-18T16:04:53;-6.50;99.90
8882;DHT22;4477;48.736;9.176;2022-12-18T16:07:20;-6.50;99.90
8882;DHT22;4477;48.736;9.176;2022-12-18T16:09:47;-6.40;99.90
8882;DHT22;4477;48.736;9.176;2022-12-18T16:12:19;-6.40;99.90
8882;DHT22;4477;48.736;9.176;2022-12-18T16:14:48;-6.40;99.90
8882;DHT22;4477;48.736;9.176;2022-12-18T16:17:15;-6.50;99.90
8882;DHT22;4477;48.736;9.176;2022-12-18T16:19:43;-6.50;99.90
8882;DHT22;4477;48.736;9.176;2022-12-18T16:22:18;-6.50;99.90
8882;DHT22;4477;48.736;9.176;2022-12-18T16:24:46;-6.50;99.90
8882;DHT22;4477;48.736;9.176;2022-12-18T16:27:13;-6.50;99.90
8882;DHT22;4477;48.736;9.176;2022-12-18T16:29:40;-6.60;99.90